Terminal Aerodrome Forecast
Issued by NWS Jackson, KY

Home | Current Version | Previous Version | Text Only | Print | Product List | Glossary On
Versions: 1 2 3 4 5 6 7 8 9 10 11 12 13 14 15 16 17 18 19 20 21 22 23 24 25
000
FTUS43 KJKL 271124
TAFJKL
TAF
KJKL 271124Z 2712/2812 00000KT 4SM BR SCT050
      TEMPO 2712/2713 2SM BR
     FM271300 VRB03KT P6SM SCT050
     FM271600 VRB03KT P6SM VCTS BKN050CB
     FM280400 00000KT 4SM BR SCT060=

USA.gov is the U.S. government's official web portal to all federal, state and local government web resources and services.